createdAt,value
2023-01-02T00:04:50.299Z,1026.1
2023-01-02T00:10:34.997Z,1026.2
2023-01-02T00:16:02.561Z,1026.3
2023-01-02T00:21:16.918Z,1026.3
2023-01-02T00:26:48.516Z,1026.3
2023-01-02T00:32:33.655Z,1026.2
2023-01-02T00:38:14.454Z,1026.1
2023-01-02T00:43:45.590Z,1025.9
2023-01-02T00:49:07.111Z,1025.9
2023-01-02T00:54:29.864Z,1025.9
2023-01-02T01:00:09.385Z,1026.1
2023-01-02T01:05:40.303Z,1026.2
2023-01-02T01:11:25.178Z,1026.2
2023-01-02T01:16:52.395Z,1026.1
2023-01-02T01:22:09.660Z,1026
2023-01-02T01:27:53.801Z,1025.8
2023-01-02T01:33:25.675Z,1025.8
2023-01-02T01:39:08.083Z,1025.8
2023-01-02T01:44:23.862Z,1025.8
2023-01-02T01:49:59.924Z,1026
2023-01-02T01:55:21.805Z,1026.2
2023-01-02T02:01:05.212Z,1026
2023-01-02T02:06:40.379Z,1026.1
2023-01-02T02:11:50.531Z,1026.1
2023-01-02T02:17:42.845Z,1025.8
2023-01-02T02:23:10.537Z,1025.9
2023-01-02T02:28:40.785Z,1026.1
2023-01-02T02:33:59.218Z,1026
2023-01-02T02:39:51.015Z,1026
2023-01-02T02:45:27.620Z,1025.9
2023-01-02T02:50:42.647Z,1025.7
2023-01-02T02:56:23.044Z,1025.9
2023-01-02T03:01:59.573Z,1025.9
2023-01-02T03:07:31.435Z,1025.7
2023-01-02T03:12:48.162Z,1025.5
2023-01-02T03:18:16.493Z,1025.5
2023-01-02T03:23:53.628Z,1025.5
2023-01-02T03:29:28.038Z,1025.5
2023-01-02T03:35:05.323Z,1025.4
2023-01-02T03:40:42.150Z,1025.5
2023-01-02T03:45:51.494Z,1025.4
2023-01-02T03:51:21.696Z,1025.7
2023-01-02T03:56:53.123Z,1025.7
2023-01-02T04:02:37.013Z,1025.6
2023-01-02T04:08:09.407Z,1025.7
2023-01-02T04:13:43.410Z,1025.8
2023-01-02T04:19:24.857Z,1025.6
2023-01-02T04:24:46.831Z,1025.6
2023-01-02T04:30:26.062Z,1025.7
2023-01-02T04:35:51.156Z,1025.7
2023-01-02T04:41:11.148Z,1025.5
2023-01-02T04:46:39.489Z,1025.5
2023-01-02T04:52:21.681Z,1025.5
2023-01-02T04:57:45.416Z,1025.7
2023-01-02T05:03:25.210Z,1025.7
2023-01-02T05:09:07.602Z,1025.7
2023-01-02T05:14:25.990Z,1025.8
2023-01-02T05:19:59.767Z,1025.8
2023-01-02T05:25:25.055Z,1025.7
2023-01-02T05:30:51.103Z,1025.7
2023-01-02T05:36:35.649Z,1025.9
2023-01-02T05:42:01.025Z,1025.8
2023-01-02T05:47:34.313Z,1026
2023-01-02T05:53:18.460Z,1025.9
2023-01-02T05:58:29.084Z,1025.9
2023-01-02T06:04:03.447Z,1025.9
2023-01-02T06:09:41.799Z,1025.9
2023-01-02T06:15:07.108Z,1025.9
2023-01-02T06:20:41.523Z,1025.9
2023-01-02T06:26:35.093Z,1026
2023-01-02T06:31:58.224Z,1025.9
2023-01-02T06:37:21.851Z,1026
2023-01-02T06:42:45.165Z,1026
2023-01-02T06:48:09.106Z,1025.9
2023-01-02T06:54:07.091Z,1025.9
2023-01-02T06:59:36.846Z,1025.9
2023-01-02T07:04:53.090Z,1025.9
2023-01-02T07:10:43.772Z,1025.9
2023-01-02T07:16:01.389Z,1026.1
2023-01-02T07:21:20.978Z,1026.2
2023-01-02T07:27:00.789Z,1026.3
2023-01-02T07:32:43.734Z,1026.3
2023-01-02T07:38:20.421Z,1026.2
2023-01-02T07:43:40.657Z,1026.4
2023-01-02T07:49:14.001Z,1026.5
2023-01-02T07:54:42.954Z,1026.6
2023-01-02T08:00:07.611Z,1026.7
2023-01-02T08:05:50.803Z,1026.6
2023-01-02T08:11:11.602Z,1026.4
2023-01-02T08:17:02.534Z,1026.5
2023-01-02T08:22:34.250Z,1026.9
2023-01-02T08:27:41.465Z,1026.9
2023-01-02T08:33:21.981Z,1026.9
2023-01-02T08:38:44.755Z,1026.9
2023-01-02T08:44:31.107Z,1027
2023-01-02T08:49:50.083Z,1027
2023-01-02T08:55:23.053Z,1027
2023-01-02T09:01:05.149Z,1027.1
2023-01-02T09:06:28.084Z,1027.1
2023-01-02T09:11:54.648Z,1027.1
2023-01-02T09:17:32.895Z,1027
2023-01-02T09:23:00.330Z,1027
2023-01-02T09:28:33.686Z,1027.1
2023-01-02T09:34:15.113Z,1027
2023-01-02T09:39:36.893Z,1027
2023-01-02T09:45:08.961Z,1026.9
2023-01-02T09:50:43.685Z,1027.2
2023-01-02T09:56:22.636Z,1027.3
2023-01-02T10:01:55.237Z,1027.2
2023-01-02T10:07:30.805Z,1026.9
2023-01-02T10:13:04.094Z,1026.9
2023-01-02T10:18:18.162Z,1026.8
2023-01-02T10:23:49.426Z,1026.7
2023-01-02T10:29:41.730Z,1026.5
2023-01-02T10:34:53.414Z,1026.5
2023-01-02T10:40:27.060Z,1026.5
2023-01-02T10:46:19.002Z,1026.3
2023-01-02T10:51:28.185Z,1026.3
2023-01-02T10:57:22.989Z,1026.3
2023-01-02T11:02:58.247Z,1026.2
2023-01-02T11:08:24.859Z,1026.1
2023-01-02T11:14:03.952Z,1026
2023-01-02T11:19:10.083Z,1026.1
2023-01-02T11:24:59.815Z,1026.3
2023-01-02T11:30:38.685Z,1026.2
2023-01-02T11:35:58.698Z,1026.3
2023-01-02T11:41:41.712Z,1026.3
2023-01-02T11:47:00.196Z,1026.1
2023-01-02T11:52:25.986Z,1026.1
2023-01-02T11:57:59.825Z,1026
2023-01-02T12:03:26.566Z,1025.8
2023-01-02T12:09:25.215Z,1025.5
2023-01-02T12:14:54.678Z,1025
2023-01-02T12:20:23.510Z,1024.6
2023-01-02T12:25:36.485Z,1024.5
2023-01-02T12:31:31.322Z,1024.4
2023-01-02T12:36:54.646Z,1024.4
2023-01-02T12:42:29.483Z,1024.4
2023-01-02T12:48:01.938Z,1024.4
2023-01-02T12:53:19.785Z,1024.5
2023-01-02T12:58:58.722Z,1024.5
2023-01-02T13:04:49.363Z,1024.7
2023-01-02T13:10:20.435Z,1024.8
2023-01-02T13:15:38.786Z,1025
2023-01-02T13:21:05.563Z,1024.8
2023-01-02T13:26:48.473Z,1025
2023-01-02T13:32:29.472Z,1025
2023-01-02T13:43:14.503Z,1025.1
2023-01-02T13:49:03.646Z,1025.3
2023-01-02T13:54:16.890Z,1025.7
2023-01-02T14:00:04.450Z,1025.7
2023-01-02T14:05:42.808Z,1025.9
2023-01-02T14:11:20.038Z,1025.6
2023-01-02T14:16:52.336Z,1026.1
2023-01-02T14:22:09.493Z,1026.2
2023-01-02T14:27:53.858Z,1026.2
2023-01-02T14:33:25.805Z,1026.4
2023-01-02T14:39:02.712Z,1026.3
2023-01-02T14:55:42.876Z,1026.5
2023-01-02T15:00:53.645Z,1026.7
2023-01-02T15:23:29.416Z,1027
2023-01-02T16:07:56.096Z,1028
2023-01-02T16:13:06.948Z,1028.3
2023-01-02T17:48:10.812Z,1029.8
2023-01-02T17:58:49.068Z,1030
2023-01-02T18:04:14.279Z,1030.1
2023-01-02T18:10:08.462Z,1030.1
2023-01-02T18:21:05.168Z,1030.6
2023-01-02T18:31:58.163Z,1030.7
2023-01-02T18:48:39.974Z,1030.7
2023-01-02T18:54:29.454Z,1030.7
2023-01-02T19:00:01.409Z,1030.7
2023-01-02T19:11:03.495Z,1030.8
2023-01-02T22:24:59.217Z,1032.2
2023-01-02T22:30:44.115Z,1032.4
2023-01-02T22:36:21.168Z,1032.5
